Time;durP1;ratioP1;P1;durP2;ratioP2;P2;SDS_P1;SDS_P2;PMS_P1;PMS_P2;Temp;Humidity;BMP_temperature;BMP_pressure;BME280_temperature;BME280_humidity;BME280_pressure;Samples;Min_cycle;Max_cycle;Signal;HPM_P1;HPM_P2
2022/03/16 00:00:11;;;;;;;127.47;60.92;;;3.70;99.90;;;;;;4931858;29;20032;-73
2022/03/16 00:02:40;;;;;;;119.50;59.15;;;3.70;99.90;;;;;;4930120;29;20493;-74
2022/03/16 00:05:06;;;;;;;137.85;62.20;;;3.80;99.90;;;;;;4934512;29;20485;-74
2022/03/16 00:07:33;;;;;;;184.02;77.15;;;3.90;99.90;;;;;;4929167;29;20048;-74
2022/03/16 00:09:59;;;;;;;189.90;74.55;;;3.90;99.90;;;;;;4932723;29;20034;-74
2022/03/16 00:12:25;;;;;;;192.57;78.97;;;3.90;99.90;;;;;;4930389;29;20050;-74
2022/03/16 00:14:51;;;;;;;149.70;75.28;;;4.00;99.90;;;;;;4933955;29;20036;-74
2022/03/16 00:17:18;;;;;;;172.48;74.25;;;4.00;99.90;;;;;;4934872;29;20488;-74
2022/03/16 00:19:44;;;;;;;169.77;74.28;;;4.00;99.90;;;;;;4932657;29;20058;-75
2022/03/16 00:22:11;;;;;;;143.25;79.55;;;4.10;99.90;;;;;;4933033;29;20040;-74
2022/03/16 00:24:37;;;;;;;106.82;72.90;;;4.10;99.90;;;;;;4932139;29;20066;-74
2022/03/16 00:27:03;;;;;;;90.35;73.40;;;4.20;99.90;;;;;;4934200;29;20489;-74
2022/03/16 00:29:30;;;;;;;98.88;75.63;;;4.20;99.90;;;;;;4927034;29;20036;-74
2022/03/16 00:31:58;;;;;;;97.18;76.82;;;4.20;99.90;;;;;;4931382;29;20031;-74
2022/03/16 00:34:24;;;;;;;83.07;74.03;;;4.20;99.90;;;;;;4919997;29;20052;-74
2022/03/16 00:36:51;;;;;;;78.32;70.13;;;4.10;99.90;;;;;;4905727;29;20035;-75
2022/03/16 00:39:17;;;;;;;83.93;75.50;;;4.20;99.90;;;;;;4929824;29;20389;-74
2022/03/16 00:41:43;;;;;;;97.65;85.05;;;4.20;99.90;;;;;;4931449;29;20036;-74
2022/03/16 00:44:10;;;;;;;98.90;88.38;;;4.30;99.90;;;;;;4932305;29;20040;-72
2022/03/16 00:46:39;;;;;;;101.65;83.10;;;4.30;99.90;;;;;;4934513;29;20465;-72
2022/03/16 00:49:05;;;;;;;84.90;74.72;;;4.20;99.90;;;;;;4928870;29;20040;-73
2022/03/16 00:51:33;;;;;;;79.50;71.47;;;4.00;99.90;;;;;;4933764;29;20036;-73
2022/03/16 00:53:59;;;;;;;74.60;67.25;;;3.90;99.90;;;;;;4932193;29;20051;-73
2022/03/16 00:56:25;;;;;;;73.18;66.22;;;3.80;99.90;;;;;;4933053;29;20044;-72
2022/03/16 00:58:52;;;;;;;78.70;71.15;;;3.90;99.90;;;;;;4932675;29;20442;-72
2022/03/16 01:01:18;;;;;;;102.63;84.35;;;3.90;99.90;;;;;;4932894;29;20047;-72
2022/03/16 01:03:45;;;;;;;102.43;78.05;;;3.90;99.90;;;;;;4933061;29;20042;-73
2022/03/16 01:06:15;;;;;;;90.35;75.68;;;3.70;99.90;;;;;;4916744;29;20067;-73
2022/03/16 01:08:43;;;;;;;78.82;68.68;;;3.70;99.90;;;;;;4931045;29;20047;-73
2022/03/16 01:11:10;;;;;;;102.25;74.20;;;3.70;99.90;;;;;;4932750;29;20051;-73
2022/03/16 01:13:37;;;;;;;91.47;64.18;;;3.60;99.90;;;;;;4927545;29;20050;-73
2022/03/16 01:16:04;;;;;;;68.72;61.58;;;3.50;99.90;;;;;;4933782;29;20062;-72
2022/03/16 01:18:30;;;;;;;72.47;62.72;;;3.30;99.90;;;;;;4928845;29;20389;-72
2022/03/16 01:20:57;;;;;;;68.10;61.35;;;3.20;99.90;;;;;;4930095;29;20044;-73
2022/03/16 01:23:23;;;;;;;72.43;64.97;;;3.30;99.90;;;;;;4918079;29;20043;-73
2022/03/16 01:25:50;;;;;;;70.78;63.15;;;3.20;99.90;;;;;;4936999;29;20036;-73
2022/03/16 01:28:16;;;;;;;71.60;64.50;;;3.10;99.90;;;;;;4937010;29;20036;-73
2022/03/16 01:30:43;;;;;;;67.43;60.53;;;3.10;99.90;;;;;;4936195;29;20039;-74
2022/03/16 01:33:09;;;;;;;67.32;60.53;;;2.90;99.90;;;;;;4935632;29;20051;-73
2022/03/16 01:35:36;;;;;;;65.38;59.05;;;2.80;99.90;;;;;;4936430;29;20040;-73
2022/03/16 01:38:02;;;;;;;61.58;56.15;;;2.70;99.90;;;;;;4936819;29;20039;-73
2022/03/16 01:40:30;;;;;;;65.50;59.22;;;2.60;99.90;;;;;;4934447;29;20047;-73
2022/03/16 01:42:56;;;;;;;67.72;61.17;;;2.80;99.90;;;;;;4936532;29;20035;-73
2022/03/16 01:45:23;;;;;;;65.25;58.63;;;2.70;99.90;;;;;;4932081;29;20035;-73
2022/03/16 01:47:49;;;;;;;66.80;60.17;;;2.60;99.90;;;;;;4932295;29;20505;-73
2022/03/16 01:50:15;;;;;;;64.05;57.88;;;2.60;99.90;;;;;;4934135;29;20453;-73
2022/03/16 01:52:42;;;;;;;68.75;62.03;;;2.60;99.90;;;;;;4936083;29;20171;-73
2022/03/16 01:55:09;;;;;;;68.65;61.33;;;2.60;99.90;;;;;;4936396;29;20032;-73
2022/03/16 01:57:39;;;;;;;69.65;62.33;;;2.60;99.90;;;;;;4902042;29;20043;-74
2022/03/16 02:00:08;;;;;;;71.22;63.95;;;2.70;99.90;;;;;;4930353;29;20405;-75
2022/03/16 02:02:42;;;;;;;68.00;61.33;;;2.70;99.90;;;;;;4918564;29;20051;-73
2022/03/16 02:05:08;;;;;;;72.35;64.78;;;2.70;99.90;;;;;;4935583;29;20047;-73
2022/03/16 02:07:37;;;;;;;75.18;67.07;;;2.80;99.90;;;;;;4932478;29;20051;-72
2022/03/16 02:10:05;;;;;;;70.78;63.50;;;2.60;99.90;;;;;;4935141;29;20094;-74
2022/03/16 02:12:51;;;;;;;70.07;62.40;;;2.50;99.90;;;;;;4935846;29;20043;-73
2022/03/16 02:15:19;;;;;;;68.53;61.75;;;2.60;99.90;;;;;;4936525;29;20038;-73
2022/03/16 02:17:46;;;;;;;68.88;62.20;;;2.60;99.90;;;;;;4936293;29;20050;-73
2022/03/16 02:20:12;;;;;;;72.45;64.80;;;2.60;99.90;;;;;;4934551;29;20062;-74
2022/03/16 02:22:52;;;;;;;65.68;58.83;;;2.60;99.90;;;;;;4931248;29;20072;-73
2022/03/16 02:25:19;;;;;;;71.07;63.78;;;2.50;99.90;;;;;;4936035;29;20028;-73
2022/03/16 02:27:45;;;;;;;66.25;59.13;;;2.50;99.90;;;;;;4933957;29;20035;-73
2022/03/16 02:30:12;;;;;;;64.60;58.22;;;2.40;99.90;;;;;;4940135;29;20210;-73
2022/03/16 02:32:38;;;;;;;68.00;60.95;;;2.40;99.90;;;;;;4939420;29;20039;-74
2022/03/16 02:35:05;;;;;;;71.80;64.35;;;2.50;99.90;;;;;;4938364;29;20047;-73
2022/03/16 02:37:31;;;;;;;70.53;62.95;;;2.50;99.90;;;;;;4936773;29;20477;-73
2022/03/16 02:39:58;;;;;;;69.57;62.28;;;2.40;99.90;;;;;;4934686;29;20047;-73
2022/03/16 02:42:24;;;;;;;66.55;59.50;;;2.30;99.90;;;;;;4935135;29;20027;-73
2022/03/16 02:44:50;;;;;;;70.70;63.00;;;2.20;99.90;;;;;;4932726;29;20036;-74
2022/03/16 02:47:16;;;;;;;69.88;62.17;;;2.20;99.90;;;;;;4935807;29;20031;-73
2022/03/16 02:49:42;;;;;;;66.70;60.17;;;2.10;99.90;;;;;;4933472;29;20043;-74
2022/03/16 02:52:09;;;;;;;67.13;60.00;;;2.10;99.90;;;;;;4935667;29;20035;-72
2022/03/16 02:54:36;;;;;;;65.55;58.67;;;2.00;99.90;;;;;;4933996;29;20486;-72
2022/03/16 02:57:02;;;;;;;66.25;59.47;;;1.90;99.90;;;;;;4935312;29;20046;-72
2022/03/16 02:59:28;;;;;;;64.10;57.92;;;1.90;99.90;;;;;;4911269;29;20059;-72
2022/03/16 03:01:55;;;;;;;67.30;60.40;;;2.00;99.90;;;;;;4935087;29;20039;-72
2022/03/16 03:04:21;;;;;;;64.30;57.60;;;1.90;99.90;;;;;;4933230;29;20051;-72
2022/03/16 03:06:47;;;;;;;63.20;56.20;;;1.90;99.90;;;;;;4934856;29;20043;-72
2022/03/16 03:09:13;;;;;;;62.53;56.00;;;1.80;99.90;;;;;;4933150;29;20058;-72
2022/03/16 03:11:40;;;;;;;66.03;59.25;;;1.80;99.90;;;;;;4934874;29;20393;-73
2022/03/16 03:14:06;;;;;;;60.17;54.17;;;1.90;99.90;;;;;;4934635;29;20035;-73
2022/03/16 03:16:32;;;;;;;78.97;60.22;;;1.90;99.90;;;;;;4935450;29;20040;-72
2022/03/16 03:18:58;;;;;;;65.88;59.25;;;1.80;99.90;;;;;;4930374;29;20032;-72
2022/03/16 03:21:25;;;;;;;70.32;63.15;;;1.80;99.90;;;;;;4935262;29;20461;-72
2022/03/16 03:23:51;;;;;;;65.60;58.88;;;1.80;99.90;;;;;;4934524;29;20039;-72
2022/03/16 03:26:17;;;;;;;66.68;60.10;;;1.70;99.90;;;;;;4933116;29;20042;-73
2022/03/16 03:28:43;;;;;;;67.60;60.42;;;1.60;99.90;;;;;;4932137;29;20052;-73
2022/03/16 03:31:09;;;;;;;66.47;59.63;;;1.50;99.90;;;;;;4934675;29;20465;-72
2022/03/16 03:33:36;;;;;;;62.08;55.78;;;1.40;99.90;;;;;;4929355;29;20052;-73
2022/03/16 03:36:02;;;;;;;61.83;55.33;;;1.30;99.90;;;;;;4911836;29;20048;-72
2022/03/16 03:38:28;;;;;;;68.22;59.70;;;1.20;99.90;;;;;;4932981;29;20044;-73
2022/03/16 03:40:56;;;;;;;62.05;55.67;;;1.30;99.90;;;;;;4930309;29;20044;-72
2022/03/16 03:43:22;;;;;;;66.05;58.50;;;1.10;99.90;;;;;;4934522;29;20048;-73
2022/03/16 03:45:48;;;;;;;66.75;56.85;;;1.00;99.90;;;;;;4917086;29;20038;-73
2022/03/16 03:48:14;;;;;;;62.20;55.55;;;1.00;99.90;;;;;;4932128;29;20039;-73
2022/03/16 03:50:41;;;;;;;62.47;55.65;;;1.00;99.90;;;;;;4934144;29;20033;-74
2022/03/16 03:53:07;;;;;;;66.53;58.50;;;1.00;99.90;;;;;;4934403;29;20059;-73
2022/03/16 03:55:33;;;;;;;70.47;61.95;;;1.00;99.90;;;;;;4934514;29;20032;-73
2022/03/16 03:57:59;;;;;;;77.10;62.13;;;1.10;99.90;;;;;;4934529;29;20381;-73
2022/03/16 04:00:25;;;;;;;69.53;58.33;;;1.10;99.90;;;;;;4933163;29;20043;-73
2022/03/16 04:02:52;;;;;;;77.82;61.88;;;1.00;99.90;;;;;;4933800;29;20032;-73
2022/03/16 04:05:20;;;;;;;76.82;63.17;;;1.00;99.90;;;;;;4934100;29;20035;-74
2022/03/16 04:07:48;;;;;;;84.25;65.40;;;1.10;99.90;;;;;;4922259;29;20044;-73
2022/03/16 04:10:14;;;;;;;79.80;62.97;;;1.10;99.90;;;;;;4924491;29;20389;-73
2022/03/16 04:12:41;;;;;;;83.72;64.35;;;1.20;99.90;;;;;;4934344;29;20378;-73
2022/03/16 04:15:08;;;;;;;86.68;65.53;;;1.20;99.90;;;;;;4930868;29;20032;-73
2022/03/16 04:17:34;;;;;;;80.70;64.03;;;1.30;99.90;;;;;;4929173;29;20141;-73
2022/03/16 04:20:01;;;;;;;91.00;66.05;;;1.30;99.90;;;;;;4933056;29;20058;-74
2022/03/16 04:22:28;;;;;;;90.32;65.70;;;1.30;99.90;;;;;;4929856;29;20032;-73
2022/03/16 04:24:57;;;;;;;84.00;66.10;;;1.30;99.90;;;;;;4933348;29;20038;-73
2022/03/16 04:27:23;;;;;;;73.93;64.70;;;1.30;99.90;;;;;;4933926;29;20488;-74
2022/03/16 04:29:50;;;;;;;84.00;66.30;;;1.30;99.90;;;;;;4927720;29;20040;-73
2022/03/16 04:32:16;;;;;;;89.97;68.93;;;1.30;99.90;;;;;;4917647;29;20028;-73
2022/03/16 04:34:42;;;;;;;95.93;67.75;;;1.40;99.90;;;;;;4933535;29;20113;-73
2022/03/16 04:37:09;;;;;;;83.40;67.00;;;1.40;99.90;;;;;;4934383;29;20504;-74
2022/03/16 04:39:36;;;;;;;91.13;68.70;;;1.50;99.90;;;;;;4929268;29;20043;-73
2022/03/16 04:42:02;;;;;;;77.40;67.35;;;1.50;99.90;;;;;;4917052;29;20516;-73
2022/03/16 04:44:28;;;;;;;85.05;67.10;;;1.60;99.90;;;;;;4932606;29;20035;-73
2022/03/16 04:46:54;;;;;;;91.00;69.47;;;1.70;99.90;;;;;;4929612;29;20464;-72
2022/03/16 04:49:21;;;;;;;94.60;71.70;;;1.80;99.90;;;;;;4931988;29;20389;-72
2022/03/16 04:51:47;;;;;;;83.50;66.28;;;1.70;99.90;;;;;;4928494;29;20036;-72
2022/03/16 04:54:14;;;;;;;92.80;68.63;;;1.70;99.90;;;;;;4931842;29;20473;-73
2022/03/16 04:56:41;;;;;;;82.10;65.47;;;1.70;99.90;;;;;;4933691;29;20042;-74
2022/03/16 04:59:07;;;;;;;84.15;66.18;;;1.70;99.90;;;;;;4934748;29;20035;-73
2022/03/16 05:01:33;;;;;;;82.30;65.22;;;1.80;99.90;;;;;;4935281;29;20032;-73
2022/03/16 05:03:59;;;;;;;90.60;68.07;;;1.80;99.90;;;;;;4934569;29;20040;-73
2022/03/16 05:06:26;;;;;;;96.55;71.93;;;1.80;99.90;;;;;;4931434;29;20058;-73
2022/03/16 05:08:52;;;;;;;88.63;69.10;;;1.90;99.90;;;;;;4933706;29;20032;-76
2022/03/16 05:11:22;;;;;;;88.13;68.38;;;1.90;99.90;;;;;;4933142;29;20393;-73
2022/03/16 05:13:49;;;;;;;89.63;68.47;;;1.90;99.90;;;;;;4929950;29;20042;-73
2022/03/16 05:16:16;;;;;;;85.22;65.90;;;1.80;99.90;;;;;;4931324;29;20083;-72
2022/03/16 05:18:45;;;;;;;87.25;68.32;;;1.70;99.90;;;;;;4931652;29;20032;-73
2022/03/16 05:21:12;;;;;;;81.45;63.63;;;1.70;99.90;;;;;;4936378;29;20476;-73
2022/03/16 05:23:40;;;;;;;88.53;67.13;;;1.70;99.90;;;;;;4937317;29;20042;-77
2022/03/16 05:26:06;;;;;;;91.80;65.60;;;1.60;99.90;;;;;;4937249;29;20363;-73
2022/03/16 05:28:34;;;;;;;91.70;69.55;;;1.60;99.90;;;;;;4937182;29;20039;-73
2022/03/16 05:31:01;;;;;;;87.38;66.57;;;1.70;99.90;;;;;;4928597;29;20028;-74
2022/03/16 05:33:27;;;;;;;89.47;70.95;;;1.70;99.90;;;;;;4930579;29;20043;-73
2022/03/16 05:35:54;;;;;;;90.95;67.43;;;1.70;99.90;;;;;;4936596;29;20042;-74
2022/03/16 05:38:21;;;;;;;76.28;65.65;;;1.60;99.90;;;;;;4934029;29;20042;-72
2022/03/16 05:40:47;;;;;;;90.40;68.13;;;1.60;99.90;;;;;;4928129;29;20043;-73
2022/03/16 05:43:13;;;;;;;90.97;66.32;;;1.60;99.90;;;;;;4919374;29;20043;-73
2022/03/16 05:45:40;;;;;;;93.90;70.88;;;1.60;99.90;;;;;;4936756;29;20466;-74
2022/03/16 05:48:06;;;;;;;77.25;62.53;;;1.60;99.90;;;;;;4935499;29;20043;-74
2022/03/16 05:50:33;;;;;;;75.70;61.83;;;1.50;99.90;;;;;;4935544;29;20031;-74
2022/03/16 05:53:01;;;;;;;90.00;66.15;;;1.60;99.90;;;;;;4906211;29;20040;-73
2022/03/16 05:55:27;;;;;;;94.63;68.03;;;1.70;99.90;;;;;;4936617;29;20042;-73
2022/03/16 05:57:54;;;;;;;91.47;63.25;;;1.70;99.90;;;;;;4933413;29;20047;-74
2022/03/16 06:00:22;;;;;;;80.85;63.97;;;1.70;99.90;;;;;;4918101;29;20051;-72
2022/03/16 06:02:50;;;;;;;82.18;63.88;;;1.80;99.90;;;;;;4936507;29;20035;-74
2022/03/16 06:05:17;;;;;;;87.47;63.63;;;1.90;99.90;;;;;;4934835;29;20032;-73
2022/03/16 06:07:43;;;;;;;85.22;63.88;;;1.90;99.90;;;;;;4918642;29;20052;-74
2022/03/16 06:10:14;;;;;;;125.32;94.65;;;2.00;99.90;;;;;;4930086;29;20039;-73
2022/03/16 06:12:54;;;;;;;95.90;69.17;;;2.10;99.90;;;;;;4936474;29;20385;-74
2022/03/16 06:15:21;;;;;;;84.50;63.00;;;2.10;99.90;;;;;;4932808;29;20039;-73
2022/03/16 06:17:48;;;;;;;75.72;59.60;;;2.20;99.90;;;;;;4934568;29;20152;-73
2022/03/16 06:20:14;;;;;;;79.03;59.20;;;2.20;99.90;;;;;;4933204;29;20409;-73
2022/03/16 06:22:40;;;;;;;84.88;66.80;;;2.30;99.90;;;;;;4935208;29;20032;-73
2022/03/16 06:25:07;;;;;;;81.18;64.10;;;2.30;99.90;;;;;;4929523;29;20032;-73
2022/03/16 06:27:33;;;;;;;85.90;61.00;;;2.40;99.90;;;;;;4935889;29;20039;-73
2022/03/16 06:29:59;;;;;;;75.20;60.22;;;2.50;99.90;;;;;;4917594;29;20050;-74
2022/03/16 06:32:25;;;;;;;80.85;61.85;;;2.60;99.90;;;;;;4932429;29;20035;-73
2022/03/16 06:34:52;;;;;;;81.00;61.50;;;2.80;99.90;;;;;;4932534;29;20040;-73
2022/03/16 06:37:18;;;;;;;66.85;58.70;;;2.80;99.90;;;;;;4935744;29;20047;-73
2022/03/16 06:39:44;;;;;;;77.22;56.22;;;2.90;99.90;;;;;;4933860;29;20044;-73
2022/03/16 06:42:10;;;;;;;62.78;52.47;;;3.00;99.90;;;;;;4931401;29;20122;-72
2022/03/16 06:44:36;;;;;;;61.58;52.80;;;3.10;99.90;;;;;;4933034;29;20036;-73
2022/03/16 06:47:03;;;;;;;62.03;48.97;;;3.10;99.90;;;;;;4934558;29;20023;-71
2022/03/16 06:49:29;;;;;;;69.82;53.60;;;3.20;99.90;;;;;;4943513;29;20469;-75
2022/03/16 06:51:55;;;;;;;100.03;86.32;;;3.30;99.90;;;;;;4940646;29;20075;-73
2022/03/16 06:54:21;;;;;;;62.20;52.10;;;3.30;99.90;;;;;;4936287;29;20043;-72
2022/03/16 06:56:47;;;;;;;58.10;47.83;;;3.50;99.90;;;;;;4934846;29;20035;-73
2022/03/16 06:59:14;;;;;;;57.72;46.95;;;3.60;99.90;;;;;;4934495;29;20039;-73
2022/03/16 07:01:40;;;;;;;49.22;43.40;;;3.70;99.90;;;;;;4934600;29;20067;-73
2022/03/16 07:04:06;;;;;;;49.22;43.92;;;4.00;99.90;;;;;;4934942;29;20039;-73
2022/03/16 07:06:33;;;;;;;45.22;40.10;;;4.20;99.90;;;;;;4935697;28;20051;-74
2022/03/16 07:08:59;;;;;;;43.08;38.88;;;4.40;99.90;;;;;;4935333;29;20034;-74
2022/03/16 07:11:25;;;;;;;41.72;37.55;;;4.70;99.90;;;;;;4929996;29;20044;-74
2022/03/16 07:16:36;;;;;;;31.35;28.50;;;5.10;99.90;;;;;;4935347;29;20051;-74
2022/03/16 07:19:03;;;;;;;32.15;28.75;;;5.20;99.90;;;;;;4932171;29;20036;-74
2022/03/16 07:21:29;;;;;;;33.15;29.80;;;5.20;99.90;;;;;;4931502;29;20470;-74
2022/03/16 07:23:55;;;;;;;31.10;28.23;;;5.20;99.90;;;;;;4929769;29;20043;-74
2022/03/16 07:26:21;;;;;;;34.35;30.88;;;5.20;99.90;;;;;;4933737;29;20055;-73
2022/03/16 07:28:47;;;;;;;34.45;30.50;;;5.50;99.90;;;;;;4932414;29;20036;-74
2022/03/16 07:31:14;;;;;;;32.70;29.38;;;5.50;99.90;;;;;;4933698;29;20047;-74
2022/03/16 07:33:40;;;;;;;36.22;32.42;;;5.70;99.90;;;;;;4931795;29;20059;-83
2022/03/16 07:36:07;;;;;;;33.88;30.50;;;6.10;99.90;;;;;;4934514;29;20044;-74
2022/03/16 07:38:33;;;;;;;30.25;27.27;;;6.60;99.90;;;;;;4935056;29;20062;-74
2022/03/16 07:41:02;;;;;;;30.23;27.58;;;6.40;99.90;;;;;;4931539;29;20454;-74
2022/03/16 07:43:30;;;;;;;28.73;26.02;;;6.20;99.90;;;;;;4934712;29;20040;-75
2022/03/16 07:45:56;;;;;;;29.27;26.48;;;6.20;99.90;;;;;;4934825;29;20043;-77
2022/03/16 07:48:23;;;;;;;31.88;28.75;;;6.40;99.90;;;;;;4934751;29;20027;-74
2022/03/16 07:50:50;;;;;;;30.85;27.95;;;6.40;99.90;;;;;;4932783;29;20106;-74
2022/03/16 07:53:17;;;;;;;31.52;28.35;;;6.80;99.90;;;;;;4934495;29;20032;-74
2022/03/16 07:55:45;;;;;;;33.25;30.35;;;7.40;99.90;;;;;;4934166;29;20110;-74
2022/03/16 07:58:12;;;;;;;29.75;26.88;;;7.60;99.90;;;;;;4934815;29;20039;-74
2022/03/16 08:00:38;;;;;;;26.65;24.42;;;7.40;99.90;;;;;;4930559;29;20036;-74
2022/03/16 08:03:04;;;;;;;25.05;22.60;;;7.20;99.90;;;;;;4933782;29;20035;-72
2022/03/16 08:05:31;;;;;;;25.98;23.45;;;7.30;99.90;;;;;;4932883;29;20032;-74
2022/03/16 08:07:58;;;;;;;26.17;23.45;;;7.40;99.90;;;;;;4932025;29;20100;-74
2022/03/16 08:10:24;;;;;;;27.60;24.98;;;7.50;99.90;;;;;;4932879;29;20038;-73
2022/03/16 08:12:50;;;;;;;28.15;25.50;;;7.30;99.90;;;;;;4933764;29;20031;-74
2022/03/16 08:15:16;;;;;;;27.05;24.55;;;7.10;99.90;;;;;;4931153;29;20043;-74
2022/03/16 08:17:43;;;;;;;30.13;27.35;;;7.00;99.90;;;;;;4934416;29;20046;-76
2022/03/16 08:20:09;;;;;;;29.98;26.77;;;7.00;99.90;;;;;;4921752;29;20055;-73
2022/03/16 08:22:36;;;;;;;30.90;28.02;;;6.90;99.90;;;;;;4934555;29;20032;-73
2022/03/16 08:25:05;;;;;;;32.03;29.00;;;7.00;99.90;;;;;;4933754;29;20039;-74
2022/03/16 08:27:32;;;;;;;31.35;28.45;;;6.90;99.90;;;;;;4934999;29;20036;-73
2022/03/16 08:29:58;;;;;;;35.08;31.60;;;7.00;99.90;;;;;;4932602;29;20046;-73
2022/03/16 08:32:25;;;;;;;35.55;31.63;;;7.10;99.90;;;;;;4934942;29;20046;-74
2022/03/16 08:34:51;;;;;;;34.42;30.98;;;7.20;99.90;;;;;;4937064;29;20043;-74
2022/03/16 08:37:18;;;;;;;33.58;30.27;;;7.40;99.90;;;;;;4937774;29;20051;-74
2022/03/16 08:39:45;;;;;;;33.88;30.42;;;7.40;99.90;;;;;;4934923;29;20038;-74
2022/03/16 08:42:12;;;;;;;31.67;28.60;;;7.50;99.90;;;;;;4932560;29;20055;-74
2022/03/16 08:44:40;;;;;;;28.83;26.15;;;7.70;99.90;;;;;;4938436;29;20039;-75
2022/03/16 08:47:07;;;;;;;30.95;27.92;;;7.70;99.90;;;;;;4937580;29;20032;-78
2022/03/16 08:49:33;;;;;;;29.58;26.73;;;7.80;99.90;;;;;;4929660;29;20046;-73
2022/03/16 08:51:59;;;;;;;28.77;24.98;;;8.00;99.90;;;;;;4933153;29;20028;-74
2022/03/16 08:54:26;;;;;;;26.10;23.80;;;8.10;99.90;;;;;;4938017;29;20036;-74
2022/03/16 08:56:52;;;;;;;27.02;23.88;;;8.10;99.90;;;;;;4933586;29;20476;-75
2022/03/16 08:59:20;;;;;;;28.63;25.75;;;8.30;99.90;;;;;;4936385;29;20047;-75
2022/03/16 09:01:46;;;;;;;25.60;23.50;;;8.40;99.90;;;;;;4931526;29;20058;-74
2022/03/16 09:04:13;;;;;;;25.10;22.73;;;8.40;99.90;;;;;;4936817;29;20393;-74
2022/03/16 09:06:40;;;;;;;24.95;22.70;;;8.50;99.90;;;;;;4931318;29;20048;-74
2022/03/16 09:09:06;;;;;;;23.30;21.10;;;8.50;99.90;;;;;;4936646;29;20043;-77
2022/03/16 09:11:34;;;;;;;23.05;20.80;;;8.60;99.90;;;;;;4936521;29;20043;-74
2022/03/16 09:14:00;;;;;;;25.45;22.52;;;8.40;99.90;;;;;;4937257;29;20036;-74
2022/03/16 09:16:28;;;;;;;25.10;22.67;;;8.60;99.90;;;;;;4937234;29;20036;-73
2022/03/16 09:18:54;;;;;;;23.98;21.58;;;8.70;99.90;;;;;;4934256;29;20031;-74
2022/03/16 09:21:20;;;;;;;22.23;20.08;;;8.80;99.90;;;;;;4931440;29;20039;-74
2022/03/16 09:23:47;;;;;;;24.92;19.58;;;8.90;99.90;;;;;;4936584;29;20031;-75
2022/03/16 09:26:13;;;;;;;24.73;22.20;;;8.90;99.90;;;;;;4936772;29;20040;-74
2022/03/16 09:28:39;;;;;;;19.50;17.70;;;8.90;99.90;;;;;;4932499;29;20036;-74
2022/03/16 09:31:09;;;;;;;16.27;14.77;;;9.10;99.90;;;;;;4933185;29;20051;-74
2022/03/16 09:33:35;;;;;;;18.90;17.15;;;9.30;99.90;;;;;;4931552;29;20036;-75
2022/03/16 09:36:08;;;;;;;17.95;16.15;;;9.40;99.90;;;;;;4936388;29;20043;-75
2022/03/16 09:38:35;;;;;;;19.95;18.02;;;9.50;99.90;;;;;;4936603;29;20043;-75
2022/03/16 09:41:02;;;;;;;17.60;14.63;;;9.50;99.90;;;;;;4918402;29;20031;-75
2022/03/16 09:43:33;;;;;;;15.00;13.40;;;9.70;99.90;;;;;;4936537;29;20035;-74
2022/03/16 09:46:09;;;;;;;15.50;14.00;;;9.90;99.90;;;;;;4934039;29;20039;-75
2022/03/16 09:48:36;;;;;;;13.60;12.18;;;10.40;96.00;;;;;;4936988;29;20043;-75
2022/03/16 09:51:04;;;;;;;14.55;13.02;;;10.70;92.00;;;;;;4929990;29;20099;-75
2022/03/16 09:53:31;;;;;;;13.88;12.38;;;11.00;92.80;;;;;;4931225;29;20036;-75
2022/03/16 09:55:58;;;;;;;12.98;11.68;;;11.30;90.90;;;;;;4930669;29;20413;-75
2022/03/16 09:58:24;;;;;;;11.77;10.57;;;11.40;88.50;;;;;;4934838;29;20043;-74
2022/03/16 10:00:53;;;;;;;12.63;11.50;;;11.10;87.40;;;;;;4935056;29;20038;-75
2022/03/16 10:03:28;;;;;;;13.15;11.80;;;11.30;88.70;;;;;;4935132;29;20397;-74
2022/03/16 10:05:58;;;;;;;13.10;11.65;;;11.10;84.70;;;;;;4936145;29;20046;-75
2022/03/16 10:08:29;;;;;;;12.07;10.98;;;11.10;86.80;;;;;;4928598;29;20040;-75
2022/03/16 10:13:57;;;;;;;12.63;11.38;;;10.80;83.60;;;;;;4936525;29;20291;-75
2022/03/16 10:16:24;;;;;;;12.27;11.07;;;11.20;88.00;;;;;;4936391;29;20048;-77
2022/03/16 10:18:57;;;;;;;11.57;10.50;;;11.60;81.00;;;;;;4935845;29;20054;-78
2022/03/16 10:21:24;;;;;;;14.05;10.10;;;11.50;81.80;;;;;;4935111;29;20035;-74
2022/03/16 10:23:51;;;;;;;10.55;9.48;;;11.50;79.50;;;;;;4936132;29;20042;-75
2022/03/16 10:26:18;;;;;;;11.73;10.60;;;11.50;81.30;;;;;;4936265;29;20043;-76
2022/03/16 10:28:48;;;;;;;13.45;10.32;;;11.50;81.40;;;;;;4935234;29;20040;-81
2022/03/16 10:31:19;;;;;;;11.63;10.57;;;11.70;80.30;;;;;;4932472;29;20040;-75
2022/03/16 10:33:51;;;;;;;10.57;8.93;;;11.60;78.80;;;;;;4932417;29;20508;-75
2022/03/16 10:36:20;;;;;;;10.70;9.85;;;11.60;78.70;;;;;;4935545;29;20389;-75
2022/03/16 10:38:52;;;;;;;11.27;10.10;;;11.90;81.00;;;;;;4928213;29;20075;-76
2022/03/16 10:47:21;;;;;;;10.95;9.63;;;12.10;78.60;;;;;;4935744;29;20044;-75
2022/03/16 10:50:00;;;;;;;12.07;9.23;;;12.20;76.40;;;;;;4916229;29;20389;-75
2022/03/16 10:52:31;;;;;;;9.25;8.40;;;12.30;78.10;;;;;;4935280;29;20028;-75
2022/03/16 10:54:57;;;;;;;9.02;8.13;;;12.40;77.00;;;;;;4932381;29;20035;-75
2022/03/16 10:57:26;;;;;;;9.65;8.65;;;12.70;75.40;;;;;;4930915;29;20043;-75
2022/03/16 10:59:53;;;;;;;9.38;8.43;;;12.70;74.90;;;;;;4933689;29;20035;-75
2022/03/16 11:02:24;;;;;;;10.70;9.00;;;12.80;74.50;;;;;;4933558;29;20027;-75
2022/03/16 11:04:51;;;;;;;8.73;7.82;;;12.90;76.20;;;;;;4935130;29;20039;-75
2022/03/16 11:07:19;;;;;;;9.35;8.05;;;13.00;73.50;;;;;;4934931;29;20457;-75
2022/03/16 11:09:47;;;;;;;8.90;8.05;;;12.80;73.60;;;;;;4932972;29;20084;-80
2022/03/16 11:15:05;;;;;;;11.23;7.97;;;13.00;73.80;;;;;;4934549;29;20062;-75
2022/03/16 11:17:32;;;;;;;9.68;8.70;;;12.80;71.20;;;;;;4934933;29;20058;-75
2022/03/16 11:20:00;;;;;;;8.23;7.43;;;12.90;72.50;;;;;;4927259;29;20035;-75
2022/03/16 11:22:34;;;;;;;9.05;8.25;;;13.00;72.10;;;;;;4934576;29;20548;-75
2022/03/16 11:25:07;;;;;;;7.72;6.97;;;12.80;69.00;;;;;;4929460;29;20474;-75
2022/03/16 11:27:42;;;;;;;7.50;6.80;;;12.90;70.80;;;;;;4930438;29;20119;-74
2022/03/16 11:30:36;;;;;;;8.85;8.00;;;12.90;67.70;;;;;;4933909;29;20055;-74
2022/03/16 11:33:06;;;;;;;7.38;6.75;;;13.00;69.30;;;;;;4934005;29;20035;-75
2022/03/16 11:35:44;;;;;;;8.85;7.93;;;13.20;69.70;;;;;;4934964;29;20031;-75
2022/03/16 11:38:13;;;;;;;7.63;6.90;;;13.20;67.80;;;;;;4929309;29;20059;-75
2022/03/16 11:40:43;;;;;;;8.13;7.35;;;13.20;69.60;;;;;;4926430;29;20496;-74
2022/03/16 11:43:11;;;;;;;7.50;6.68;;;13.30;69.10;;;;;;4934411;29;20035;-76
2022/03/16 11:45:40;;;;;;;9.77;6.53;;;13.60;69.10;;;;;;4927733;29;20508;-78
2022/03/16 11:48:31;;;;;;;7.68;6.85;;;13.80;67.30;;;;;;4934340;29;20027;-76
2022/03/16 11:51:09;;;;;;;9.70;7.18;;;13.90;67.50;;;;;;4925261;29;20035;-75
2022/03/16 11:56:22;;;;;;;9.80;6.93;;;13.30;67.90;;;;;;4934417;29;20048;-74
2022/03/16 11:58:49;;;;;;;6.97;6.28;;;13.60;65.40;;;;;;4934098;29;20461;-75
2022/03/16 12:01:34;;;;;;;8.35;7.55;;;13.70;65.50;;;;;;4930791;29;20039;-75
2022/03/16 12:04:11;;;;;;;8.48;6.97;;;13.80;65.40;;;;;;4929153;29;20504;-74
2022/03/16 12:07:00;;;;;;;7.22;6.63;;;13.40;64.70;;;;;;4934500;29;20051;-74
2022/03/16 12:09:39;;;;;;;10.95;8.27;;;13.10;67.10;;;;;;4932809;29;20042;-74
2022/03/16 12:15:05;;;;;;;7.45;6.60;;;12.90;67.10;;;;;;4921599;29;20039;-74
2022/03/16 12:17:32;;;;;;;7.88;6.45;;;13.30;67.40;;;;;;4934693;29;20046;-74
2022/03/16 12:20:26;;;;;;;6.25;5.65;;;13.50;66.40;;;;;;4932955;29;20032;-74
2022/03/16 12:23:01;;;;;;;7.55;5.88;;;13.80;65.40;;;;;;4926281;29;20040;-74
2022/03/16 12:25:34;;;;;;;9.07;6.18;;;13.70;65.10;;;;;;4930055;29;20375;-74
2022/03/16 12:31:11;;;;;;;8.60;6.93;;;13.60;65.00;;;;;;4929528;29;20421;-74
2022/03/16 12:33:43;;;;;;;8.13;6.90;;;13.70;65.10;;;;;;4929313;29;20051;-74
2022/03/16 12:36:11;;;;;;;6.32;5.72;;;13.80;65.40;;;;;;4928533;29;20035;-74
2022/03/16 12:38:40;;;;;;;7.97;6.03;;;14.00;64.60;;;;;;4933899;29;20478;-75
2022/03/16 12:43:57;;;;;;;8.30;6.90;;;13.70;64.00;;;;;;4934054;29;20449;-75
2022/03/16 12:46:32;;;;;;;7.10;6.40;;;13.60;65.50;;;;;;4928065;29;20131;-73
2022/03/16 12:49:02;;;;;;;7.90;6.78;;;13.40;65.90;;;;;;4932237;29;20031;-74
2022/03/16 12:51:40;;;;;;;7.75;6.95;;;13.40;66.40;;;;;;4934265;29;20373;-80
2022/03/16 12:54:07;;;;;;;9.00;8.00;;;13.50;66.10;;;;;;4933904;29;20039;-74
2022/03/16 12:56:41;;;;;;;8.45;6.88;;;13.60;66.40;;;;;;4933201;29;20051;-74
2022/03/16 12:59:10;;;;;;;7.75;7.05;;;13.60;65.60;;;;;;4931864;29;20386;-74
2022/03/16 13:01:37;;;;;;;7.18;6.47;;;13.50;67.20;;;;;;4934037;29;20035;-74
2022/03/16 13:04:10;;;;;;;9.35;7.60;;;13.70;68.20;;;;;;4923770;29;20036;-74
2022/03/16 13:06:36;;;;;;;8.30;6.82;;;13.60;68.20;;;;;;4925006;29;20134;-74